Sealyon — 2CGJ2 — position and weather

sailwx.info

Track history (hours):
 
Tides and Currents Weather Stations Pressure Air Temp Water Temp Dewpoint Dewpoint Depression Visibility Wind Speed Wind Dir Waves Ship Positions

Sealyon

Last reported at 2017-Aug-17 18:59 UTC. Time now 2017-Aug-17 19:05 UTC.
Position N 40°43' E 014°29'.

Length 62 m; draft 3.2 m.

Type: Pleasure craft. MMSI: 235072538.

Date/timePositionNaut miles runAvg speedWind from/ knotsBaromVisibWave heightAir tempDewpointWater temp
2017-Aug-17 18:59N 40°43' E 014°29'0 0.0
2017-Aug-17 18:24N 40°43' E 014°29'0 0.0
2017-Aug-17 11:22N 40°43' E 014°29'0 0.0
2017-Aug-17 10:59N 40°43' E 014°29'0 0.0
2017-Aug-15 12:06N 40°43' E 014°29'0 0.0
2017-Aug-15 12:00N 40°43' E 014°29'  
2017-Aug-12 06:55N 40°40' E 014°23'  
2017-Aug-09 13:23N 40°34' E 014°19'411.2
2017-Aug-09 13:00N 40°38' E 014°20'2 4.5
2017-Aug-09 12:30N 40°38' E 014°23'0 0.0
2017-Aug-09 12:00N 40°38' E 014°23'0 0.0
2017-Aug-09 11:30N 40°38' E 014°23'0 0.0
2017-Aug-09 11:01N 40°38' E 014°23'0 0.0
2017-Aug-09 10:30N 40°38' E 014°23'0 0.0
2017-Aug-09 10:00N 40°38' E 014°23'0 0.0
2017-Aug-09 09:30N 40°38' E 014°23'0 0.0
2017-Aug-09 09:00N 40°38' E 014°23'0 0.0
2017-Aug-09 08:30N 40°38' E 014°23'0 0.0
2017-Aug-09 08:00N 40°38' E 014°23'0 0.0
2017-Aug-09 07:30N 40°38' E 014°23'0 0.0
2017-Aug-09 06:59N 40°38' E 014°23'0 0.0
2017-Aug-09 06:29N 40°38' E 014°23'0 0.0
2017-Aug-09 06:00N 40°38' E 014°23'0 0.0
2017-Aug-09 05:30N 40°38' E 014°23'0 0.0
2017-Aug-09 05:00N 40°38' E 014°23'0 0.0
2017-Aug-08 20:58N 40°38' E 014°23'0 0.0
2017-Aug-08 20:30N 40°38' E 014°23'0 0.0
2017-Aug-08 20:00N 40°38' E 014°23'0 0.0
2017-Aug-08 19:30N 40°38' E 014°23'0 0.0
2017-Aug-08 19:00N 40°38' E 014°23'4 7.5
2017-Aug-08 18:30N 40°37' E 014°19'5 9.1
2017-Aug-08 18:00N 40°33' E 014°16'2 3.2
2017-Aug-08 17:30N 40°32' E 014°14'0 0.2
2017-Aug-08 17:00N 40°32' E 014°14'2 3.4
2017-Aug-08 16:30N 40°31' E 014°14'0 0.1
2017-Aug-08 16:00N 40°31' E 014°14'0 0.4
2017-Aug-08 15:30N 40°31' E 014°14'0 0.5
2017-Aug-08 15:00N 40°31' E 014°14'0 0.4
2017-Aug-08 14:30N 40°31' E 014°14'0 0.4
2017-Aug-08 14:00N 40°31' E 014°14'0 0.6
2017-Aug-08 13:30N 40°32' E 014°13'1 1.0
2017-Aug-08 13:00N 40°32' E 014°13'0 0.1
2017-Aug-08 12:30N 40°32' E 014°13'0 0.2
2017-Aug-08 12:00N 40°32' E 014°13'0 0.3
2017-Aug-08 11:30N 40°32' E 014°13'0 0.3
2017-Aug-08 11:00N 40°32' E 014°13'0 0.4
2017-Aug-08 10:30N 40°32' E 014°14'0 0.4
2017-Aug-08 10:00N 40°32' E 014°14'0 0.3
2017-Aug-08 09:30N 40°32' E 014°14'1 1.3
2017-Aug-08 08:49N 40°32' E 014°14'0 0.0
2017-Aug-08 08:22N 40°32' E 014°14'0 0.0
2017-Aug-08 07:44N 40°32' E 014°14'0 0.0
2017-Aug-08 07:29N 40°32' E 014°14'  
Track history (hours):
 
Tides and Currents Weather Stations Pressure Air Temp Water Temp Dewpoint Dewpoint Depression Visibility Wind Speed Wind Dir Waves Ship Positions

Sealyon

Last reported at 2017-Aug-17 18:59 UTC. Time now 2017-Aug-17 19:05 UTC.
Position N 40°43' E 014°29'.

Length 62 m; draft 3.2 m.

Type: Pleasure craft. MMSI: 235072538.

Date/timePositionNaut miles runAvg speedWind from/ knotsBaromVisibWave heightAir tempDewpointWater temp
2017-Aug-17 18:59N 40°43' E 014°29'0 0.0
2017-Aug-17 18:24N 40°43' E 014°29'0 0.0
2017-Aug-17 11:22N 40°43' E 014°29'0 0.0
2017-Aug-17 10:59N 40°43' E 014°29'0 0.0
2017-Aug-15 12:06N 40°43' E 014°29'0 0.0
2017-Aug-15 12:00N 40°43' E 014°29'  
2017-Aug-12 06:55N 40°40' E 014°23'  
2017-Aug-09 13:23N 40°34' E 014°19'411.2
2017-Aug-09 13:00N 40°38' E 014°20'2 4.5
2017-Aug-09 12:30N 40°38' E 014°23'0 0.0
2017-Aug-09 12:00N 40°38' E 014°23'0 0.0
2017-Aug-09 11:30N 40°38' E 014°23'0 0.0
2017-Aug-09 11:01N 40°38' E 014°23'0 0.0
2017-Aug-09 10:30N 40°38' E 014°23'0 0.0
2017-Aug-09 10:00N 40°38' E 014°23'0 0.0
2017-Aug-09 09:30N 40°38' E 014°23'0 0.0
2017-Aug-09 09:00N 40°38' E 014°23'0 0.0
2017-Aug-09 08:30N 40°38' E 014°23'0 0.0
2017-Aug-09 08:00N 40°38' E 014°23'0 0.0
2017-Aug-09 07:30N 40°38' E 014°23'0 0.0
2017-Aug-09 06:59N 40°38' E 014°23'0 0.0
2017-Aug-09 06:29N 40°38' E 014°23'0 0.0
2017-Aug-09 06:00N 40°38' E 014°23'0 0.0
2017-Aug-09 05:30N 40°38' E 014°23'0 0.0
2017-Aug-09 05:00N 40°38' E 014°23'0 0.0
2017-Aug-08 20:58N 40°38' E 014°23'0 0.0
2017-Aug-08 20:30N 40°38' E 014°23'0 0.0
2017-Aug-08 20:00N 40°38' E 014°23'0 0.0
2017-Aug-08 19:30N 40°38' E 014°23'0 0.0
2017-Aug-08 19:00N 40°38' E 014°23'4 7.5
2017-Aug-08 18:30N 40°37' E 014°19'5 9.1
2017-Aug-08 18:00N 40°33' E 014°16'2 3.2
2017-Aug-08 17:30N 40°32' E 014°14'0 0.2
2017-Aug-08 17:00N 40°32' E 014°14'2 3.4
2017-Aug-08 16:30N 40°31' E 014°14'0 0.1
2017-Aug-08 16:00N 40°31' E 014°14'0 0.4
2017-Aug-08 15:30N 40°31' E 014°14'0 0.5
2017-Aug-08 15:00N 40°31' E 014°14'0 0.4
2017-Aug-08 14:30N 40°31' E 014°14'0 0.4
2017-Aug-08 14:00N 40°31' E 014°14'0 0.6
2017-Aug-08 13:30N 40°32' E 014°13'1 1.0
2017-Aug-08 13:00N 40°32' E 014°13'0 0.1
2017-Aug-08 12:30N 40°32' E 014°13'0 0.2
2017-Aug-08 12:00N 40°32' E 014°13'0 0.3
2017-Aug-08 11:30N 40°32' E 014°13'0 0.3
2017-Aug-08 11:00N 40°32' E 014°13'0 0.4
2017-Aug-08 10:30N 40°32' E 014°14'0 0.4
2017-Aug-08 10:00N 40°32' E 014°14'0 0.3
2017-Aug-08 09:30N 40°32' E 014°14'1 1.3
2017-Aug-08 08:49N 40°32' E 014°14'0 0.0
2017-Aug-08 08:22N 40°32' E 014°14'0 0.0
2017-Aug-08 07:44N 40°32' E 014°14'0 0.0
2017-Aug-08 07:29N 40°32' E 014°14'  

Dump ship's entire track history